Time;durP1;ratioP1;P1;durP2;ratioP2;P2;SDS_P1;SDS_P2;PMS_P1;PMS_P2;Temp;Humidity;BMP_temperature;BMP_pressure;BME280_temperature;BME280_humidity;BME280_pressure;Samples;Min_cycle;Max_cycle;Signal;HPM_P1;HPM_P2
2023/12/09 06:00:10;;;;;;;5.50;4.23;;;;;;;;;;1741543;28;20182;-77
2023/12/09 06:01:02;;;;;;;6.15;4.43;;;;;;;;;;1741292;28;20698;-76
2023/12/09 06:01:56;;;;;;;5.85;4.30;;;;;;;;;;1741058;28;20226;-76
2023/12/09 06:02:47;;;;;;;6.32;3.92;;;;;;;;;;1741313;28;20199;-77
2023/12/09 06:03:38;;;;;;;9.15;4.35;;;;;;;;;;1741358;28;20605;-76
2023/12/09 06:04:30;;;;;;;5.90;4.32;;;;;;;;;;1741427;28;20286;-77
2023/12/09 06:05:21;;;;;;;10.27;4.95;;;;;;;;;;1741204;28;20218;-77
2023/12/09 06:06:13;;;;;;;5.40;4.22;;;;;;;;;;1741263;28;20215;-76
2023/12/09 06:07:05;;;;;;;6.75;3.97;;;;;;;;;;1740905;28;20211;-76
2023/12/09 06:07:56;;;;;;;8.63;4.13;;;;;;;;;;1741160;28;20272;-76
2023/12/09 06:08:48;;;;;;;4.53;3.92;;;;;;;;;;1741387;28;20195;-77
2023/12/09 06:09:40;;;;;;;4.55;3.90;;;;;;;;;;1746602;28;20600;-77
2023/12/09 06:10:31;;;;;;;5.40;3.70;;;;;;;;;;1748123;28;20658;-77
2023/12/09 06:11:23;;;;;;;7.35;4.20;;;;;;;;;;1741301;28;20199;-77
2023/12/09 06:12:14;;;;;;;5.40;3.80;;;;;;;;;;1741322;28;20199;-76
2023/12/09 06:13:05;;;;;;;4.88;3.95;;;;;;;;;;1741227;28;20207;-77
2023/12/09 06:13:57;;;;;;;5.20;4.00;;;;;;;;;;1741332;28;20201;-77
2023/12/09 06:14:48;;;;;;;7.20;3.50;;;;;;;;;;1741270;28;20214;-77
2023/12/09 06:15:42;;;;;;;3.90;3.60;;;;;;;;;;1741254;28;20207;-77
2023/12/09 06:16:33;;;;;;;5.20;4.25;;;;;;;;;;1740700;28;20219;-76
2023/12/09 06:17:24;;;;;;;5.00;4.38;;;;;;;;;;1741155;28;20221;-76
2023/12/09 06:18:17;;;;;;;7.32;4.18;;;;;;;;;;1741102;28;20305;-76
2023/12/09 06:19:08;;;;;;;5.07;4.20;;;;;;;;;;1741276;28;20580;-77
2023/12/09 06:20:00;;;;;;;5.35;4.35;;;;;;;;;;1741499;28;20217;-76
2023/12/09 06:20:52;;;;;;;6.03;4.72;;;;;;;;;;1741544;28;20284;-76
2023/12/09 06:21:43;;;;;;;6.35;4.60;;;;;;;;;;1742325;28;20222;-77
2023/12/09 06:22:35;;;;;;;5.25;3.90;;;;;;;;;;1744032;28;20269;-83
2023/12/09 06:23:26;;;;;;;5.05;4.00;;;;;;;;;;1742755;28;20207;-83
2023/12/09 06:24:18;;;;;;;6.15;4.80;;;;;;;;;;1742626;28;20253;-83
2023/12/09 06:25:09;;;;;;;5.45;4.68;;;;;;;;;;1743031;28;20214;-82
2023/12/09 06:26:03;;;;;;;4.50;4.10;;;;;;;;;;1742412;28;20199;-82
2023/12/09 06:26:55;;;;;;;5.82;4.50;;;;;;;;;;1742371;28;20195;-82
2023/12/09 06:27:46;;;;;;;4.45;4.05;;;;;;;;;;1742983;28;20207;-82
2023/12/09 06:28:38;;;;;;;5.40;4.15;;;;;;;;;;1742254;28;20265;-81
2023/12/09 06:29:29;;;;;;;8.82;4.07;;;;;;;;;;1742936;28;20199;-83
2023/12/09 06:30:20;;;;;;;9.82;4.47;;;;;;;;;;1743181;28;20202;-79
2023/12/09 06:31:14;;;;;;;5.75;4.28;;;;;;;;;;1741022;28;20199;-77
2023/12/09 06:32:05;;;;;;;3.90;3.50;;;;;;;;;;1741021;28;20210;-76
2023/12/09 06:32:56;;;;;;;6.13;3.67;;;;;;;;;;1741029;28;20195;-76
2023/12/09 06:33:48;;;;;;;6.15;4.00;;;;;;;;;;1741104;28;20203;-76
2023/12/09 06:34:39;;;;;;;7.00;4.03;;;;;;;;;;1740977;28;20683;-76
2023/12/09 06:35:30;;;;;;;6.25;4.60;;;;;;;;;;1740968;28;20206;-76
2023/12/09 06:36:22;;;;;;;3.72;3.42;;;;;;;;;;1746174;28;20578;-76
2023/12/09 06:37:13;;;;;;;4.82;3.75;;;;;;;;;;1747375;28;20233;-76
2023/12/09 06:38:04;;;;;;;4.82;3.53;;;;;;;;;;1740842;28;20203;-75
2023/12/09 06:38:56;;;;;;;4.10;3.05;;;;;;;;;;1740944;28;20219;-76
2023/12/09 06:39:48;;;;;;;4.50;3.63;;;;;;;;;;1740952;28;20211;-76
2023/12/09 06:40:40;;;;;;;6.00;3.50;;;;;;;;;;1740981;28;20194;-76
2023/12/09 06:41:31;;;;;;;3.75;3.30;;;;;;;;;;1740889;28;20218;-76
2023/12/09 06:42:23;;;;;;;6.03;4.15;;;;;;;;;;1740975;28;20663;-76
2023/12/09 06:43:14;;;;;;;5.03;3.58;;;;;;;;;;1740940;28;20207;-76
2023/12/09 06:44:06;;;;;;;5.68;3.78;;;;;;;;;;1740976;28;20612;-76
2023/12/09 06:44:57;;;;;;;6.75;4.13;;;;;;;;;;1741032;28;20557;-76
2023/12/09 06:45:48;;;;;;;4.32;3.67;;;;;;;;;;1740958;28;20261;-76
2023/12/09 06:46:41;;;;;;;4.13;3.78;;;;;;;;;;1740588;28;20254;-76
2023/12/09 06:47:32;;;;;;;6.25;4.50;;;;;;;;;;1740944;28;20207;-76
2023/12/09 06:48:25;;;;;;;5.72;3.75;;;;;;;;;;1740888;28;20215;-76
2023/12/09 06:49:17;;;;;;;4.20;3.20;;;;;;;;;;1740933;28;20207;-76
2023/12/09 06:50:09;;;;;;;4.38;3.00;;;;;;;;;;1740901;28;20290;-76
2023/12/09 06:51:00;;;;;;;4.75;3.63;;;;;;;;;;1740989;28;20602;-76
2023/12/09 06:51:52;;;;;;;4.78;3.20;;;;;;;;;;1740935;28;20195;-76
2023/12/09 06:52:43;;;;;;;3.92;2.85;;;;;;;;;;1744104;28;20206;-76
2023/12/09 06:53:38;;;;;;;3.78;2.95;;;;;;;;;;1740834;28;20195;-76
2023/12/09 06:54:30;;;;;;;4.47;3.22;;;;;;;;;;1740747;28;20191;-76
2023/12/09 06:55:21;;;;;;;6.22;2.80;;;;;;;;;;1741010;28;20199;-76
2023/12/09 06:56:18;;;;;;;2.97;2.50;;;;;;;;;;1740887;28;20575;-76
2023/12/09 06:57:10;;;;;;;4.25;2.90;;;;;;;;;;1733751;28;20261;-76
2023/12/09 06:58:02;;;;;;;5.97;3.03;;;;;;;;;;1734028;28;20212;-76
2023/12/09 06:58:54;;;;;;;4.05;2.97;;;;;;;;;;1739961;28;20250;-76
2023/12/09 06:59:46;;;;;;;4.00;2.80;;;;;;;;;;1740981;28;20313;-76
2023/12/09 07:00:37;;;;;;;3.90;2.75;;;;;;;;;;1740857;28;20293;-76
2023/12/09 07:01:30;;;;;;;3.38;2.80;;;;;;;;;;1740954;28;20191;-76
2023/12/09 07:02:22;;;;;;;3.45;3.10;;;;;;;;;;1740828;28;20295;-75
2023/12/09 07:03:14;;;;;;;3.45;2.95;;;;;;;;;;1740894;28;20226;-76
2023/12/09 07:04:05;;;;;;;5.55;3.67;;;;;;;;;;1740845;28;20203;-76
2023/12/09 07:04:57;;;;;;;5.30;3.30;;;;;;;;;;1740982;28;20234;-76
2023/12/09 07:05:49;;;;;;;3.22;2.72;;;;;;;;;;1740891;28;20226;-75
2023/12/09 07:06:40;;;;;;;3.15;2.58;;;;;;;;;;1740621;28;20679;-76
2023/12/09 07:07:33;;;;;;;3.13;2.83;;;;;;;;;;1742025;28;20188;-75
2023/12/09 07:08:24;;;;;;;3.85;2.70;;;;;;;;;;1742082;28;20256;-76
2023/12/09 07:09:15;;;;;;;2.65;2.42;;;;;;;;;;1747513;28;20740;-76
2023/12/09 07:10:08;;;;;;;3.40;2.80;;;;;;;;;;1744767;28;20219;-76
2023/12/09 07:10:59;;;;;;;4.45;2.90;;;;;;;;;;1742280;28;20233;-76
2023/12/09 07:11:51;;;;;;;3.47;2.70;;;;;;;;;;1742212;28;20303;-77
2023/12/09 07:12:43;;;;;;;3.20;2.58;;;;;;;;;;1742298;28;20638;-76
2023/12/09 07:13:34;;;;;;;3.33;2.80;;;;;;;;;;1742171;28;20199;-76
2023/12/09 07:14:26;;;;;;;5.80;3.35;;;;;;;;;;1742180;28;20202;-76
2023/12/09 07:15:17;;;;;;;3.83;2.70;;;;;;;;;;1742273;28;20208;-76
2023/12/09 07:16:10;;;;;;;3.50;2.90;;;;;;;;;;1742125;28;20264;-76
2023/12/09 07:17:01;;;;;;;6.57;2.90;;;;;;;;;;1742063;28;20203;-76
2023/12/09 07:17:54;;;;;;;6.25;3.40;;;;;;;;;;1742123;28;20199;-76
2023/12/09 07:18:46;;;;;;;4.28;2.88;;;;;;;;;;1742164;28;20664;-76
2023/12/09 07:19:37;;;;;;;3.75;2.97;;;;;;;;;;1742144;28;20575;-76
2023/12/09 07:20:29;;;;;;;4.32;2.75;;;;;;;;;;1742190;28;20202;-76
2023/12/09 07:21:20;;;;;;;4.65;2.80;;;;;;;;;;1742356;28;20215;-76
2023/12/09 07:22:13;;;;;;;6.10;2.80;;;;;;;;;;1742107;28;20202;-77
2023/12/09 07:23:05;;;;;;;4.15;2.97;;;;;;;;;;1742205;28;20285;-76
2023/12/09 07:23:56;;;;;;;3.85;2.85;;;;;;;;;;1742125;28;20582;-76
2023/12/09 07:24:48;;;;;;;3.85;3.10;;;;;;;;;;1742142;28;20203;-76
2023/12/09 07:25:39;;;;;;;3.85;2.95;;;;;;;;;;1743256;28;20383;-76
2023/12/09 07:26:30;;;;;;;4.72;3.20;;;;;;;;;;1741882;28;20199;-76
2023/12/09 07:27:22;;;;;;;3.72;3.08;;;;;;;;;;1741933;28;20210;-75
2023/12/09 07:28:13;;;;;;;4.70;2.97;;;;;;;;;;1742065;28;20203;-75
2023/12/09 07:29:05;;;;;;;4.07;3.17;;;;;;;;;;1742069;28;20215;-76
2023/12/09 07:29:57;;;;;;;5.25;4.13;;;;;;;;;;1742179;28;20575;-76
2023/12/09 07:30:48;;;;;;;6.15;3.60;;;;;;;;;;1742088;28;20226;-76
2023/12/09 07:31:40;;;;;;;4.97;3.85;;;;;;;;;;1742171;28;20199;-76
2023/12/09 07:32:32;;;;;;;5.10;4.60;;;;;;;;;;1742116;28;20667;-76
2023/12/09 07:33:25;;;;;;;4.15;3.75;;;;;;;;;;1742063;28;20249;-76
2023/12/09 07:34:18;;;;;;;5.18;3.53;;;;;;;;;;1742088;28;20199;-76
2023/12/09 07:35:10;;;;;;;5.05;3.75;;;;;;;;;;1742100;28;20226;-76
2023/12/09 07:36:01;;;;;;;6.05;3.60;;;;;;;;;;1742160;28;20675;-76
2023/12/09 07:36:52;;;;;;;5.55;3.30;;;;;;;;;;1741622;28;20206;-76
2023/12/09 07:37:44;;;;;;;4.53;2.80;;;;;;;;;;1742114;28;20281;-76
2023/12/09 07:38:35;;;;;;;4.13;3.03;;;;;;;;;;1741896;28;20278;-76
2023/12/09 07:39:27;;;;;;;5.32;2.80;;;;;;;;;;1742044;28;20199;-76
2023/12/09 07:40:18;;;;;;;5.65;2.50;;;;;;;;;;1741975;28;20207;-76
2023/12/09 07:41:09;;;;;;;4.43;2.55;;;;;;;;;;1742071;28;20289;-76
2023/12/09 07:42:02;;;;;;;3.00;2.70;;;;;;;;;;1743128;28;20671;-76
2023/12/09 07:42:53;;;;;;;5.18;2.33;;;;;;;;;;1741987;28;20230;-77
2023/12/09 07:43:44;;;;;;;4.15;3.10;;;;;;;;;;1742087;28;20241;-76
2023/12/09 07:44:36;;;;;;;3.47;2.60;;;;;;;;;;1741854;28;20226;-76
2023/12/09 07:45:27;;;;;;;3.35;2.15;;;;;;;;;;1741984;28;20210;-76
2023/12/09 07:46:19;;;;;;;5.20;2.75;;;;;;;;;;1741938;28;20203;-76
2023/12/09 07:47:11;;;;;;;4.70;2.53;;;;;;;;;;1741662;28;20560;-77
2023/12/09 07:48:03;;;;;;;4.53;1.90;;;;;;;;;;1742058;28;20597;-76
2023/12/09 07:48:56;;;;;;;5.10;2.55;;;;;;;;;;1742157;28;20205;-76
2023/12/09 07:49:48;;;;;;;4.40;2.10;;;;;;;;;;1741853;28;20209;-76
2023/12/09 07:50:39;;;;;;;3.22;1.95;;;;;;;;;;1742052;28;20199;-77
2023/12/09 07:51:30;;;;;;;4.28;2.00;;;;;;;;;;1741536;28;20261;-76
2023/12/09 07:52:22;;;;;;;3.85;2.38;;;;;;;;;;1735104;28;20195;-76
2023/12/09 07:53:13;;;;;;;3.92;2.25;;;;;;;;;;1735046;28;20664;-76
2023/12/09 07:54:05;;;;;;;2.83;1.70;;;;;;;;;;1740968;28;20203;-76
2023/12/09 07:54:56;;;;;;;5.50;2.28;;;;;;;;;;1742552;28;20210;-76
2023/12/09 07:55:48;;;;;;;6.47;2.30;;;;;;;;;;1743796;28;20233;-81
2023/12/09 07:56:40;;;;;;;4.30;2.80;;;;;;;;;;1753772;28;20586;-78
2023/12/09 07:57:31;;;;;;;4.93;2.80;;;;;;;;;;1751175;28;20214;-79
2023/12/09 07:58:23;;;;;;;3.58;2.88;;;;;;;;;;1747050;28;20277;-79
2023/12/09 07:59:15;;;;;;;5.43;3.03;;;;;;;;;;1747241;28;20210;-79
2023/12/09 08:00:07;;;;;;;5.55;3.42;;;;;;;;;;1746977;28;20671;-79
2023/12/09 08:01:01;;;;;;;3.28;2.75;;;;;;;;;;1747578;28;20191;-79
2023/12/09 08:01:52;;;;;;;4.97;3.38;;;;;;;;;;1739537;28;20222;-79
2023/12/09 08:02:43;;;;;;;5.57;2.90;;;;;;;;;;1739972;28;20200;-79
2023/12/09 08:03:35;;;;;;;5.15;3.42;;;;;;;;;;1744948;28;20203;-78
2023/12/09 08:04:28;;;;;;;5.93;3.58;;;;;;;;;;1746151;28;20207;-78
2023/12/09 08:05:21;;;;;;;6.03;3.22;;;;;;;;;;1746261;28;20215;-79
2023/12/09 08:06:13;;;;;;;4.65;2.90;;;;;;;;;;1743812;28;20207;-76
2023/12/09 08:07:04;;;;;;;4.72;3.10;;;;;;;;;;1742391;28;20210;-76
2023/12/09 08:07:55;;;;;;;4.72;2.60;;;;;;;;;;1741914;28;20195;-75
2023/12/09 08:08:50;;;;;;;3.88;3.35;;;;;;;;;;1742125;28;20265;-78
2023/12/09 08:09:41;;;;;;;4.90;3.20;;;;;;;;;;1743529;28;20610;-77
2023/12/09 08:10:32;;;;;;;5.93;3.75;;;;;;;;;;1744723;28;20203;-77
2023/12/09 08:11:25;;;;;;;8.48;4.05;;;;;;;;;;1737988;28;20192;-78
2023/12/09 08:12:16;;;;;;;13.02;5.53;;;;;;;;;;1735084;28;20204;-75
2023/12/09 08:13:08;;;;;;;6.78;4.07;;;;;;;;;;1746775;28;20240;-76
2023/12/09 08:14:00;;;;;;;5.55;3.80;;;;;;;;;;1748631;28;20198;-76
2023/12/09 08:14:51;;;;;;;5.43;3.42;;;;;;;;;;1744296;28;20199;-76
2023/12/09 08:15:43;;;;;;;4.45;4.05;;;;;;;;;;1741898;28;20260;-75
2023/12/09 08:16:35;;;;;;;6.20;3.97;;;;;;;;;;1741327;28;20203;-76
2023/12/09 08:17:26;;;;;;;4.60;3.22;;;;;;;;;;1741824;28;20199;-76
2023/12/09 08:18:17;;;;;;;6.95;3.17;;;;;;;;;;1741119;28;20269;-76
2023/12/09 08:19:09;;;;;;;5.65;3.50;;;;;;;;;;1741688;28;20219;-76
2023/12/09 08:20:05;;;;;;;3.72;3.17;;;;;;;;;;1741817;28;20210;-76
2023/12/09 08:20:58;;;;;;;6.65;3.10;;;;;;;;;;1734968;28;20199;-76
2023/12/09 08:21:50;;;;;;;7.60;3.03;;;;;;;;;;1739289;28;20188;-76
2023/12/09 08:22:41;;;;;;;4.45;2.97;;;;;;;;;;1743117;28;20211;-77
2023/12/09 08:23:33;;;;;;;4.10;2.60;;;;;;;;;;1743382;28;20238;-78
2023/12/09 08:24:25;;;;;;;6.97;2.33;;;;;;;;;;1743334;28;20710;-76
2023/12/09 08:25:16;;;;;;;5.03;4.18;;;;;;;;;;1735869;28;20215;-77
2023/12/09 08:26:10;;;;;;;3.85;2.47;;;;;;;;;;1739568;28;20571;-77
2023/12/09 08:27:01;;;;;;;6.32;3.08;;;;;;;;;;1738540;28;20196;-76
2023/12/09 08:27:53;;;;;;;3.92;2.75;;;;;;;;;;1738838;28;20242;-76
2023/12/09 08:28:44;;;;;;;4.72;2.90;;;;;;;;;;1740510;28;20215;-76
2023/12/09 08:29:36;;;;;;;5.10;2.70;;;;;;;;;;1739971;28;20191;-77
2023/12/09 08:30:28;;;;;;;2.67;2.10;;;;;;;;;;1739517;28;20200;-77
2023/12/09 08:31:19;;;;;;;4.72;2.50;;;;;;;;;;1741509;28;20195;-77
2023/12/09 08:32:10;;;;;;;4.95;3.35;;;;;;;;;;1743365;28;20727;-77
2023/12/09 08:33:02;;;;;;;6.30;2.60;;;;;;;;;;1736847;28;20188;-76
2023/12/09 08:33:53;;;;;;;4.93;2.88;;;;;;;;;;1739786;28;20586;-77
2023/12/09 08:34:45;;;;;;;6.18;3.20;;;;;;;;;;1742125;28;20202;-76
2023/12/09 08:35:38;;;;;;;4.35;3.13;;;;;;;;;;1738780;28;20199;-76
2023/12/09 08:36:29;;;;;;;3.90;3.50;;;;;;;;;;1739218;28;20664;-76
2023/12/09 08:37:25;;;;;;;6.50;3.70;;;;;;;;;;1739277;28;20248;-76
2023/12/09 08:38:16;;;;;;;7.10;3.85;;;;;;;;;;1740888;28;20199;-76
2023/12/09 08:39:08;;;;;;;7.10;3.95;;;;;;;;;;1737456;28;20775;-76
2023/12/09 08:40:05;;;;;;;5.75;3.70;;;;;;;;;;1740172;28;20269;-76
2023/12/09 08:40:57;;;;;;;6.25;3.50;;;;;;;;;;1737829;28;20774;-76
2023/12/09 08:41:48;;;;;;;6.50;3.25;;;;;;;;;;1741479;28;20214;-76
2023/12/09 08:42:40;;;;;;;4.32;3.33;;;;;;;;;;1737710;28;20187;-76
2023/12/09 08:43:32;;;;;;;6.38;3.90;;;;;;;;;;1739986;28;20222;-76
2023/12/09 08:44:23;;;;;;;6.68;3.65;;;;;;;;;;1740110;28;20191;-76
2023/12/09 08:45:16;;;;;;;5.45;3.40;;;;;;;;;;1740230;28;20198;-76
2023/12/09 08:46:08;;;;;;;5.43;3.30;;;;;;;;;;1738832;28;20192;-77
2023/12/09 08:46:59;;;;;;;5.32;3.90;;;;;;;;;;1738442;28;20656;-76
2023/12/09 08:47:51;;;;;;;5.80;3.53;;;;;;;;;;1739088;28;20219;-75
2023/12/09 08:48:42;;;;;;;5.18;3.45;;;;;;;;;;1738493;28;20219;-76
2023/12/09 08:49:33;;;;;;;5.80;4.00;;;;;;;;;;1741336;28;20622;-76
2023/12/09 08:50:25;;;;;;;4.35;3.30;;;;;;;;;;1741298;28;20201;-75
2023/12/09 08:51:18;;;;;;;4.97;3.65;;;;;;;;;;1747437;28;20202;-76
2023/12/09 08:52:09;;;;;;;8.40;5.00;;;;;;;;;;1749554;28;20203;-77
2023/12/09 08:53:02;;;;;;;29.00;20.75;;;;;;;;;;1745080;28;20223;-76
2023/12/09 08:53:53;;;;;;;25.08;16.10;;;;;;;;;;1741573;28;20203;-75
2023/12/09 08:54:44;;;;;;;12.55;7.50;;;;;;;;;;1741562;28;20600;-76
2023/12/09 08:55:36;;;;;;;10.63;4.70;;;;;;;;;;1741975;28;20195;-75
2023/12/09 08:56:27;;;;;;;4.75;3.30;;;;;;;;;;1741299;28;20203;-76
2023/12/09 08:57:18;;;;;;;4.20;2.88;;;;;;;;;;1741412;28;20199;-76
2023/12/09 08:58:10;;;;;;;5.18;3.20;;;;;;;;;;1741508;28;20210;-76
2023/12/09 08:59:01;;;;;;;5.53;3.15;;;;;;;;;;1734648;28;20196;-76
2023/12/09 08:59:53;;;;;;;5.80;2.90;;;;;;;;;;1734737;28;20207;-75
2023/12/09 09:00:45;;;;;;;3.97;2.90;;;;;;;;;;1741070;28;20597;-75
2023/12/09 09:01:38;;;;;;;6.32;3.40;;;;;;;;;;1741407;28;20191;-76
2023/12/09 09:02:30;;;;;;;4.65;3.22;;;;;;;;;;1741452;28;20214;-75
2023/12/09 09:03:23;;;;;;;4.28;3.60;;;;;;;;;;1741564;28;20205;-76
2023/12/09 09:04:14;;;;;;;4.97;3.20;;;;;;;;;;1741441;28;20210;-76
2023/12/09 09:05:05;;;;;;;3.90;2.78;;;;;;;;;;1743007;28;20714;-77
2023/12/09 09:05:57;;;;;;;6.28;3.25;;;;;;;;;;1743228;28;20574;-78
2023/12/09 09:06:49;;;;;;;3.83;2.65;;;;;;;;;;1743249;28;20230;-78
2023/12/09 09:07:43;;;;;;;3.83;2.90;;;;;;;;;;1743420;28;20218;-77
2023/12/09 09:08:36;;;;;;;3.38;2.45;;;;;;;;;;1735512;28;20854;-77
2023/12/09 09:09:27;;;;;;;3.50;2.72;;;;;;;;;;1735932;28;20581;-77
2023/12/09 09:10:18;;;;;;;3.38;2.17;;;;;;;;;;1741979;28;20199;-77
2023/12/09 09:11:12;;;;;;;5.00;2.75;;;;;;;;;;1741984;28;20202;-76
2023/12/09 09:12:03;;;;;;;3.58;2.42;;;;;;;;;;1741682;28;20207;-76
2023/12/09 09:12:55;;;;;;;5.07;2.80;;;;;;;;;;1742170;28;20210;-77
2023/12/09 09:13:47;;;;;;;3.40;2.63;;;;;;;;;;1742299;28;20206;-78
2023/12/09 09:14:38;;;;;;;3.35;2.78;;;;;;;;;;1742968;28;20210;-77
2023/12/09 09:15:29;;;;;;;3.47;2.60;;;;;;;;;;1742684;28;20226;-77
2023/12/09 09:16:21;;;;;;;4.15;2.78;;;;;;;;;;1742096;28;20206;-77
2023/12/09 09:17:12;;;;;;;4.35;3.30;;;;;;;;;;1746856;28;20206;-76
2023/12/09 09:18:03;;;;;;;4.78;2.70;;;;;;;;;;1739579;28;20230;-76
2023/12/09 09:18:55;;;;;;;5.00;3.40;;;;;;;;;;1740939;28;20563;-76
2023/12/09 09:19:47;;;;;;;4.47;3.13;;;;;;;;;;1741150;28;20214;-76
2023/12/09 09:20:38;;;;;;;4.95;2.75;;;;;;;;;;1741089;28;20226;-76
2023/12/09 09:21:30;;;;;;;6.88;3.00;;;;;;;;;;1739958;28;20257;-76
2023/12/09 09:22:23;;;;;;;4.80;3.10;;;;;;;;;;1747293;28;20201;-75
2023/12/09 09:23:16;;;;;;;3.72;3.33;;;;;;;;;;1745481;28;20240;-76
2023/12/09 09:24:07;;;;;;;6.05;4.00;;;;;;;;;;1741160;28;20210;-76
2023/12/09 09:24:58;;;;;;;4.32;3.63;;;;;;;;;;1740993;28;20222;-76
2023/12/09 09:25:50;;;;;;;4.25;3.15;;;;;;;;;;1741204;28;20616;-76
2023/12/09 09:26:42;;;;;;;3.85;2.30;;;;;;;;;;1740774;28;20203;-76
2023/12/09 09:27:33;;;;;;;2.85;2.40;;;;;;;;;;1740943;28;20211;-75
2023/12/09 09:28:25;;;;;;;5.68;3.00;;;;;;;;;;1740964;28;20304;-76
2023/12/09 09:29:16;;;;;;;6.78;2.97;;;;;;;;;;1740673;28;20203;-76
2023/12/09 09:30:08;;;;;;;5.25;3.33;;;;;;;;;;1740464;28;20206;-76
2023/12/09 09:31:00;;;;;;;8.30;2.60;;;;;;;;;;1740179;28;20203;-75
2023/12/09 09:31:51;;;;;;;4.85;2.50;;;;;;;;;;1739924;28;20195;-76
2023/12/09 09:32:43;;;;;;;5.00;2.60;;;;;;;;;;1740929;28;20195;-76
2023/12/09 09:33:34;;;;;;;4.07;2.33;;;;;;;;;;1740993;28;20214;-75
2023/12/09 09:34:25;;;;;;;3.28;2.40;;;;;;;;;;1740982;28;20659;-75
2023/12/09 09:35:17;;;;;;;2.63;2.20;;;;;;;;;;1740951;28;20675;-75
2023/12/09 09:36:09;;;;;;;3.67;2.50;;;;;;;;;;1744638;28;20194;-76
2023/12/09 09:37:01;;;;;;;4.25;2.35;;;;;;;;;;1741525;28;20202;-76
2023/12/09 09:37:53;;;;;;;4.53;2.65;;;;;;;;;;1741087;28;20207;-76
2023/12/09 09:38:44;;;;;;;4.05;2.20;;;;;;;;;;1741206;28;20722;-76
2023/12/09 09:39:36;;;;;;;2.85;2.45;;;;;;;;;;1741157;28;20288;-78
2023/12/09 09:40:27;;;;;;;5.93;3.17;;;;;;;;;;1741192;28;20203;-77
2023/12/09 09:41:23;;;;;;;6.18;2.67;;;;;;;;;;1740422;28;20234;-76
2023/12/09 09:42:21;;;;;;;4.45;2.42;;;;;;;;;;1741058;28;20199;-76
2023/12/09 09:43:17;;;;;;;4.22;2.97;;;;;;;;;;1741164;28;20203;-77
2023/12/09 09:44:11;;;;;;;3.63;3.30;;;;;;;;;;1740594;28;20203;-76
2023/12/09 09:45:08;;;;;;;5.28;3.30;;;;;;;;;;1739301;28;20203;-76
2023/12/09 09:46:03;;;;;;;4.43;3.40;;;;;;;;;;1740344;28;20198;-75
2023/12/09 09:46:56;;;;;;;4.90;3.00;;;;;;;;;;1739991;28;20686;-76
2023/12/09 09:47:48;;;;;;;5.15;3.42;;;;;;;;;;1740894;28;20195;-75
2023/12/09 09:48:41;;;;;;;5.03;3.35;;;;;;;;;;1740639;28;20881;-76
2023/12/09 09:49:33;;;;;;;3.67;2.80;;;;;;;;;;1737278;28;20222;-76
2023/12/09 09:50:26;;;;;;;5.50;3.83;;;;;;;;;;1741008;28;20199;-76
2023/12/09 09:51:19;;;;;;;7.50;4.70;;;;;;;;;;1740742;28;20199;-75
2023/12/09 09:52:13;;;;;;;4.55;3.35;;;;;;;;;;1740757;28;20290;-76
2023/12/09 09:53:08;;;;;;;7.22;3.80;;;;;;;;;;1741130;28;20191;-76
2023/12/09 09:54:04;;;;;;;5.82;3.38;;;;;;;;;;1741154;28;20206;-76
2023/12/09 09:54:56;;;;;;;5.25;3.60;;;;;;;;;;1740789;28;20691;-75
2023/12/09 09:55:48;;;;;;;6.80;2.95;;;;;;;;;;1740506;28;20206;-76
2023/12/09 09:56:39;;;;;;;6.07;3.67;;;;;;;;;;1740832;28;20199;-75
2023/12/09 09:57:31;;;;;;;7.38;3.33;;;;;;;;;;1741196;28;20249;-76
2023/12/09 09:58:22;;;;;;;5.93;3.05;;;;;;;;;;1741306;28;20215;-76
2023/12/09 09:59:14;;;;;;;3.92;3.00;;;;;;;;;;1740748;28;20268;-76
2023/12/09 10:00:13;;;;;;;5.03;3.20;;;;;;;;;;1741988;28;20695;-76
2023/12/09 10:01:06;;;;;;;4.40;2.80;;;;;;;;;;1741381;28;20194;-77
2023/12/09 10:01:57;;;;;;;2.97;2.60;;;;;;;;;;1741289;28;20199;-76
2023/12/09 10:02:49;;;;;;;4.18;2.40;;;;;;;;;;1742311;28;20252;-77
2023/12/09 10:03:41;;;;;;;3.65;2.33;;;;;;;;;;1742258;28;20217;-76
2023/12/09 10:04:32;;;;;;;6.72;4.15;;;;;;;;;;1742042;28;20577;-77
2023/12/09 10:05:23;;;;;;;5.20;3.55;;;;;;;;;;1741868;28;20248;-76
2023/12/09 10:06:16;;;;;;;5.07;3.20;;;;;;;;;;1741412;28;20201;-76
2023/12/09 10:07:07;;;;;;;6.53;3.00;;;;;;;;;;1741143;28;20263;-76
2023/12/09 10:07:59;;;;;;;4.88;2.90;;;;;;;;;;1741020;28;20245;-76
2023/12/09 10:08:52;;;;;;;5.32;3.08;;;;;;;;;;1741348;28;20667;-76
2023/12/09 10:09:44;;;;;;;8.80;3.10;;;;;;;;;;1741289;28;20199;-76
2023/12/09 10:10:35;;;;;;;4.80;3.30;;;;;;;;;;1741373;28;20199;-76
2023/12/09 10:11:26;;;;;;;3.58;3.25;;;;;;;;;;1734548;28;20199;-76
2023/12/09 10:12:18;;;;;;;5.35;3.20;;;;;;;;;;1740980;28;20286;-76
2023/12/09 10:13:09;;;;;;;4.65;2.90;;;;;;;;;;1741437;28;20220;-75
2023/12/09 10:14:01;;;;;;;6.88;3.00;;;;;;;;;;1741196;28;20210;-76
2023/12/09 10:14:53;;;;;;;3.05;2.40;;;;;;;;;;1741016;28;20215;-76
2023/12/09 10:15:44;;;;;;;6.55;3.42;;;;;;;;;;1741093;28;20195;-76
2023/12/09 10:16:36;;;;;;;4.47;3.00;;;;;;;;;;1740580;28;20207;-75
2023/12/09 10:17:28;;;;;;;6.60;2.60;;;;;;;;;;1741114;28;20199;-76
2023/12/09 10:18:21;;;;;;;4.63;3.05;;;;;;;;;;1740555;28;20629;-76
2023/12/09 10:19:16;;;;;;;5.20;2.60;;;;;;;;;;1740811;28;20215;-75
2023/12/09 10:20:09;;;;;;;8.50;4.05;;;;;;;;;;1741096;28;20578;-76
2023/12/09 10:21:01;;;;;;;5.70;2.72;;;;;;;;;;1741093;28;20195;-76
2023/12/09 10:21:52;;;;;;;4.70;3.05;;;;;;;;;;1741101;28;20211;-76
2023/12/09 10:22:43;;;;;;;5.88;2.80;;;;;;;;;;1741154;28;20206;-76
2023/12/09 10:23:35;;;;;;;3.95;2.50;;;;;;;;;;1741067;28;20195;-76
2023/12/09 10:24:27;;;;;;;4.03;2.83;;;;;;;;;;1738520;28;20652;-76
2023/12/09 10:25:22;;;;;;;2.40;2.20;;;;;;;;;;1742017;28;20205;-77
2023/12/09 10:26:14;;;;;;;3.60;2.38;;;;;;;;;;1743926;28;20233;-77
2023/12/09 10:27:07;;;;;;;3.35;2.78;;;;;;;;;;1745195;28;20209;-78
2023/12/09 10:27:58;;;;;;;4.35;3.20;;;;;;;;;;1746430;28;20203;-76
2023/12/09 10:28:50;;;;;;;2.80;2.33;;;;;;;;;;1745776;28;20195;-78
2023/12/09 10:29:42;;;;;;;3.35;2.35;;;;;;;;;;1745781;28;20259;-78
2023/12/09 10:30:33;;;;;;;3.78;2.63;;;;;;;;;;1745992;28;20195;-78
2023/12/09 10:31:27;;;;;;;5.38;2.70;;;;;;;;;;1746304;28;20207;-78
2023/12/09 10:32:18;;;;;;;3.45;2.78;;;;;;;;;;1745719;28;20207;-77
2023/12/09 10:33:10;;;;;;;3.45;2.60;;;;;;;;;;1745135;28;20226;-78
2023/12/09 10:34:02;;;;;;;3.67;2.10;;;;;;;;;;1745103;28;20211;-78
2023/12/09 10:34:53;;;;;;;2.65;2.15;;;;;;;;;;1746412;28;20195;-78
2023/12/09 10:35:45;;;;;;;3.97;3.05;;;;;;;;;;1745802;28;20209;-78
2023/12/09 10:36:36;;;;;;;4.00;2.35;;;;;;;;;;1742440;28;20215;-76
2023/12/09 10:37:28;;;;;;;4.40;2.42;;;;;;;;;;1741332;28;20230;-77
2023/12/09 10:38:19;;;;;;;4.85;2.90;;;;;;;;;;1741379;28;20230;-76
2023/12/09 10:39:12;;;;;;;3.75;2.78;;;;;;;;;;1742217;28;20209;-77
2023/12/09 10:40:06;;;;;;;2.55;2.35;;;;;;;;;;1741866;28;20264;-77
2023/12/09 10:40:57;;;;;;;3.33;2.70;;;;;;;;;;1741903;28;20210;-77
2023/12/09 10:41:49;;;;;;;3.22;2.42;;;;;;;;;;1743683;28;20195;-77
2023/12/09 10:42:40;;;;;;;3.13;2.65;;;;;;;;;;1745865;28;20583;-78
2023/12/09 10:43:32;;;;;;;4.55;2.40;;;;;;;;;;1744873;28;20195;-78
2023/12/09 10:44:23;;;;;;;3.15;2.55;;;;;;;;;;1745098;28;20670;-77
2023/12/09 10:45:14;;;;;;;3.30;2.45;;;;;;;;;;1744741;28;20229;-78
2023/12/09 10:46:07;;;;;;;4.30;2.80;;;;;;;;;;1744915;28;20203;-77
2023/12/09 10:46:58;;;;;;;4.60;2.70;;;;;;;;;;1744097;28;20214;-78
2023/12/09 10:47:49;;;;;;;5.15;2.42;;;;;;;;;;1744882;28;20199;-78
2023/12/09 10:48:42;;;;;;;3.15;2.38;;;;;;;;;;1742944;28;20207;-76
2023/12/09 10:49:33;;;;;;;4.78;3.05;;;;;;;;;;1736818;28;20200;-77
2023/12/09 10:50:24;;;;;;;2.92;2.63;;;;;;;;;;1739401;28;20196;-78
2023/12/09 10:51:17;;;;;;;10.02;5.13;;;;;;;;;;1744820;28;20271;-78
2023/12/09 10:52:08;;;;;;;5.57;4.40;;;;;;;;;;1746115;28;20298;-78
2023/12/09 10:52:59;;;;;;;6.68;4.35;;;;;;;;;;1746078;28;20198;-79
2023/12/09 10:53:51;;;;;;;5.63;3.60;;;;;;;;;;1748455;28;20218;-78
2023/12/09 10:54:42;;;;;;;5.72;3.50;;;;;;;;;;1747738;28;20211;-78
2023/12/09 10:55:35;;;;;;;8.30;5.93;;;;;;;;;;1748614;28;20233;-78
2023/12/09 10:56:27;;;;;;;10.00;6.68;;;;;;;;;;1747971;28;20199;-78
2023/12/09 10:57:19;;;;;;;9.52;6.05;;;;;;;;;;1748032;28;20206;-78
2023/12/09 10:58:12;;;;;;;6.95;4.55;;;;;;;;;;1747025;28;20237;-77
2023/12/09 10:59:04;;;;;;;3.53;2.80;;;;;;;;;;1744200;28;20203;-77
2023/12/09 10:59:56;;;;;;;6.38;2.90;;;;;;;;;;1744145;28;20226;-77
2023/12/09 11:00:49;;;;;;;6.65;3.00;;;;;;;;;;1744738;28;20206;-76
2023/12/09 11:01:40;;;;;;;16.40;8.68;;;;;;;;;;1745335;28;20218;-77
2023/12/09 11:02:32;;;;;;;8.02;6.10;;;;;;;;;;1745178;28;20286;-79
2023/12/09 11:03:25;;;;;;;4.95;3.60;;;;;;;;;;1745544;28;20203;-77
2023/12/09 11:04:16;;;;;;;4.65;3.78;;;;;;;;;;1745700;28;20211;-78
2023/12/09 11:05:09;;;;;;;3.65;2.50;;;;;;;;;;1747622;28;20266;-78
2023/12/09 11:06:02;;;;;;;9.60;2.83;;;;;;;;;;1742760;28;20199;-75
2023/12/09 11:06:56;;;;;;;3.72;2.55;;;;;;;;;;1741886;28;20199;-75
2023/12/09 11:07:47;;;;;;;3.78;2.30;;;;;;;;;;1742185;28;20207;-75
2023/12/09 11:08:40;;;;;;;3.58;2.63;;;;;;;;;;1742167;28;20612;-75
2023/12/09 11:09:31;;;;;;;3.90;2.55;;;;;;;;;;1742201;28;20207;-76
2023/12/09 11:10:22;;;;;;;3.78;2.58;;;;;;;;;;1742260;28;20203;-76
2023/12/09 11:11:16;;;;;;;3.45;2.67;;;;;;;;;;1742373;28;20203;-75